Time;durP1;ratioP1;P1;durP2;ratioP2;P2;SDS_P1;SDS_P2;PMS_P1;PMS_P2;Temp;Humidity;BMP_temperature;BMP_pressure;BME280_temperature;BME280_humidity;BME280_pressure;Samples;Min_cycle;Max_cycle;Signal;HPM_P1;HPM_P2
2023/04/10 00:02:26;;;;;;;6.78;5.60;;;6.40;79.00;;;;;;4971241;28;20226;-71
2023/04/10 00:04:53;;;;;;;7.70;4.53;;;6.40;78.60;;;;;;4971458;28;20221;-71
2023/04/10 00:07:20;;;;;;;5.35;4.20;;;6.40;78.30;;;;;;4971972;28;20223;-71
2023/04/10 00:09:48;;;;;;;4.43;3.05;;;6.40;79.00;;;;;;4971379;28;20206;-71
2023/04/10 00:12:15;;;;;;;5.05;4.00;;;6.30;78.50;;;;;;4971904;28;20226;-71
2023/04/10 00:14:42;;;;;;;4.55;3.58;;;6.30;78.90;;;;;;4972020;28;20215;-71
2023/04/10 00:17:09;;;;;;;5.47;4.05;;;6.20;79.30;;;;;;4971534;28;20238;-71
2023/04/10 00:19:36;;;;;;;6.38;5.18;;;6.20;80.50;;;;;;4971490;28;20278;-71
2023/04/10 00:22:02;;;;;;;6.05;3.70;;;6.10;80.20;;;;;;4971772;28;20282;-71
2023/04/10 00:24:29;;;;;;;6.22;3.92;;;6.10;80.10;;;;;;4971789;28;20306;-71
2023/04/10 00:26:57;;;;;;;6.13;4.45;;;6.00;80.60;;;;;;4972215;28;20562;-71
2023/04/10 00:29:24;;;;;;;6.30;5.25;;;5.90;80.80;;;;;;4971057;28;20791;-71
2023/04/10 00:31:51;;;;;;;8.98;4.22;;;5.90;81.00;;;;;;4970997;28;20570;-71
2023/04/10 00:34:18;;;;;;;7.00;4.45;;;5.90;81.10;;;;;;4971339;28;20208;-71
2023/04/10 00:36:46;;;;;;;12.48;7.97;;;5.80;81.30;;;;;;4971549;28;20223;-71
2023/04/10 00:39:13;;;;;;;4.45;4.05;;;5.80;81.80;;;;;;4970660;28;20198;-71
2023/04/10 00:41:40;;;;;;;8.77;5.28;;;5.80;82.10;;;;;;4961869;28;20241;-71
2023/04/10 00:44:08;;;;;;;5.20;4.68;;;5.80;81.30;;;;;;4970715;28;20219;-71
2023/04/10 00:46:37;;;;;;;6.63;4.75;;;5.90;81.10;;;;;;4970922;28;21200;-71
2023/04/10 00:49:05;;;;;;;6.53;5.57;;;5.90;80.80;;;;;;4970286;28;20720;-71
2023/04/10 00:51:31;;;;;;;7.47;4.18;;;5.80;80.90;;;;;;4971348;28;20234;-71
2023/04/10 00:54:01;;;;;;;4.25;3.85;;;5.80;80.90;;;;;;4971432;28;20821;-71
2023/04/10 00:56:29;;;;;;;4.68;3.88;;;5.70;80.90;;;;;;4971319;28;20578;-71
2023/04/10 00:58:56;;;;;;;5.55;4.97;;;5.70;82.10;;;;;;4968448;28;20950;-71
2023/04/10 01:01:24;;;;;;;4.15;3.60;;;5.70;82.50;;;;;;4971071;28;20241;-71
2023/04/10 01:03:52;;;;;;;4.57;3.53;;;5.70;83.00;;;;;;4970316;28;20200;-71
2023/04/10 01:06:26;;;;;;;5.00;3.60;;;5.70;82.50;;;;;;4970093;28;20223;-71
2023/04/10 01:08:58;;;;;;;8.30;4.72;;;5.80;82.00;;;;;;4970006;28;20290;-71
2023/04/10 01:11:36;;;;;;;6.63;5.07;;;5.80;81.80;;;;;;4970778;28;20590;-71
2023/04/10 01:14:12;;;;;;;6.82;3.20;;;5.80;81.80;;;;;;4970970;28;20261;-71
2023/04/10 01:16:50;;;;;;;4.38;3.65;;;5.80;81.90;;;;;;4967336;28;20230;-71
2023/04/10 01:19:32;;;;;;;8.32;3.78;;;5.80;81.70;;;;;;4970642;28;20200;-71
2023/04/10 01:22:03;;;;;;;5.55;3.70;;;5.70;82.30;;;;;;4961846;28;20235;-71
2023/04/10 01:24:50;;;;;;;6.85;4.45;;;5.70;82.60;;;;;;4970713;28;20637;-71
2023/04/10 01:27:44;;;;;;;4.07;3.17;;;5.70;83.00;;;;;;4970375;28;20251;-71
2023/04/10 01:30:18;;;;;;;4.03;3.63;;;5.60;83.10;;;;;;4965829;28;20200;-71
2023/04/10 01:32:45;;;;;;;9.98;4.30;;;5.50;83.50;;;;;;4970457;28;20203;-71
2023/04/10 01:35:16;;;;;;;5.07;4.25;;;5.30;84.40;;;;;;4970373;28;20254;-71
2023/04/10 01:37:46;;;;;;;5.15;4.10;;;5.20;85.00;;;;;;4970081;28;20214;-71
2023/04/10 01:40:16;;;;;;;8.45;4.82;;;5.10;85.60;;;;;;4968335;28;20211;-71
2023/04/10 01:42:47;;;;;;;5.13;4.63;;;5.00;85.80;;;;;;4969610;28;20241;-71
2023/04/10 01:45:25;;;;;;;4.55;3.67;;;5.00;86.20;;;;;;4970981;28;20207;-71
2023/04/10 01:47:53;;;;;;;6.10;3.78;;;4.90;85.60;;;;;;4970107;28;20213;-71
2023/04/10 01:50:23;;;;;;;6.53;5.57;;;4.90;86.70;;;;;;4969621;28;20641;-71
2023/04/10 01:52:52;;;;;;;6.75;4.30;;;4.90;86.90;;;;;;4951746;28;20673;-71
2023/04/10 01:55:20;;;;;;;7.90;4.13;;;4.90;86.90;;;;;;4970377;28;20218;-71
2023/04/10 01:57:48;;;;;;;6.18;3.22;;;4.80;86.90;;;;;;4970357;28;20200;-71
2023/04/10 02:00:17;;;;;;;4.07;3.40;;;4.80;87.30;;;;;;4964480;28;20253;-71
2023/04/10 02:02:45;;;;;;;13.23;5.40;;;4.70;88.20;;;;;;4969634;28;20227;-71
2023/04/10 02:05:16;;;;;;;7.20;6.35;;;4.60;88.60;;;;;;4969860;28;20678;-71
2023/04/10 02:07:50;;;;;;;7.22;4.75;;;4.60;88.70;;;;;;4969884;28;21138;-71
2023/04/10 02:10:23;;;;;;;4.82;2.97;;;4.50;89.20;;;;;;4969324;28;20317;-71
2023/04/10 02:12:55;;;;;;;5.28;4.50;;;4.50;89.70;;;;;;4969164;28;20234;-71
2023/04/10 02:15:26;;;;;;;10.23;5.53;;;4.50;88.90;;;;;;4969730;28;20207;-71
2023/04/10 02:17:54;;;;;;;11.88;5.22;;;4.40;89.30;;;;;;4968655;28;20227;-71
2023/04/10 02:20:23;;;;;;;5.57;5.07;;;4.30;89.60;;;;;;4969343;28;20231;-71
2023/04/10 02:22:50;;;;;;;6.05;4.07;;;4.30;90.00;;;;;;4969245;28;20608;-71
2023/04/10 02:25:17;;;;;;;5.22;3.83;;;4.10;90.40;;;;;;4970067;28;20626;-71
2023/04/10 02:27:45;;;;;;;4.55;3.17;;;4.00;90.70;;;;;;4969520;28;20214;-71
2023/04/10 02:30:12;;;;;;;5.03;3.75;;;3.90;91.00;;;;;;4967962;28;20208;-71
2023/04/10 02:32:41;;;;;;;10.50;4.75;;;4.00;91.10;;;;;;4969131;28;20203;-71
2023/04/10 02:35:09;;;;;;;3.35;3.05;;;4.10;90.70;;;;;;4969740;28;20195;-71
2023/04/10 02:37:36;;;;;;;5.47;3.75;;;4.00;90.60;;;;;;4969451;28;20706;-71
2023/04/10 02:40:04;;;;;;;4.50;4.00;;;4.00;90.70;;;;;;4968881;28;20336;-71
2023/04/10 02:42:32;;;;;;;4.28;3.90;;;4.10;90.50;;;;;;4963902;28;20241;-71
2023/04/10 02:44:58;;;;;;;4.07;3.03;;;4.00;90.10;;;;;;4968716;28;20213;-71
2023/04/10 02:47:25;;;;;;;6.32;4.25;;;4.00;90.70;;;;;;4969114;28;20225;-71
2023/04/10 02:49:54;;;;;;;3.85;3.55;;;4.00;90.90;;;;;;4968672;28;20243;-71
2023/04/10 02:52:22;;;;;;;4.75;3.85;;;4.10;91.10;;;;;;4968249;28;20235;-71
2023/04/10 02:54:49;;;;;;;4.70;3.70;;;4.10;91.10;;;;;;4969229;28;20191;-71
2023/04/10 02:57:17;;;;;;;6.03;4.20;;;4.00;91.10;;;;;;4969084;28;20317;-71
2023/04/10 02:59:44;;;;;;;5.47;4.97;;;4.00;91.20;;;;;;4938363;29;20581;-71
2023/04/10 03:02:12;;;;;;;7.25;3.30;;;4.00;91.40;;;;;;4961312;28;20238;-71
2023/04/10 03:04:40;;;;;;;3.08;2.50;;;4.00;91.60;;;;;;4967701;28;20208;-71
2023/04/10 03:07:09;;;;;;;4.13;2.72;;;4.00;91.70;;;;;;4967787;28;20225;-71
2023/04/10 03:09:36;;;;;;;4.95;3.55;;;3.90;91.50;;;;;;4967445;28;20677;-71
2023/04/10 03:12:04;;;;;;;3.80;2.65;;;3.80;91.80;;;;;;4965611;28;20226;-71
2023/04/10 03:14:32;;;;;;;3.15;2.67;;;3.70;91.50;;;;;;4967008;28;20192;-71
2023/04/10 03:16:59;;;;;;;3.40;2.72;;;3.70;91.10;;;;;;4968487;28;20226;-71
2023/04/10 03:19:26;;;;;;;6.82;2.50;;;3.70;90.80;;;;;;4968417;28;20659;-71
2023/04/10 03:21:53;;;;;;;8.43;5.78;;;3.80;90.60;;;;;;4967922;28;20230;-71
2023/04/10 03:24:21;;;;;;;6.88;3.50;;;3.80;90.50;;;;;;4968397;28;20199;-71
2023/04/10 03:26:49;;;;;;;4.47;3.88;;;3.70;90.80;;;;;;4967510;28;20238;-71
2023/04/10 03:29:19;;;;;;;4.53;3.80;;;3.70;91.20;;;;;;4967524;28;20211;-71
2023/04/10 03:31:46;;;;;;;2.58;1.98;;;3.80;91.50;;;;;;4961533;28;20218;-71
2023/04/10 03:34:13;;;;;;;5.90;4.88;;;3.90;91.80;;;;;;4968702;28;20202;-71
2023/04/10 03:36:40;;;;;;;3.75;2.88;;;3.90;92.00;;;;;;4968578;28;20314;-71
2023/04/10 03:39:06;;;;;;;6.75;3.13;;;3.80;92.30;;;;;;4967516;28;20195;-70
2023/04/10 03:41:35;;;;;;;6.20;3.88;;;3.70;92.60;;;;;;4956693;28;20234;-70
2023/04/10 03:44:02;;;;;;;5.88;4.20;;;3.70;93.00;;;;;;4966192;28;20230;-71
2023/04/10 03:46:29;;;;;;;7.65;5.07;;;3.60;93.20;;;;;;4968312;28;20217;-71
2023/04/10 03:48:56;;;;;;;5.15;4.10;;;3.70;93.20;;;;;;4968253;28;20207;-71
2023/04/10 03:51:24;;;;;;;6.50;5.15;;;3.80;92.90;;;;;;4967861;28;20688;-71
2023/04/10 03:53:50;;;;;;;6.22;3.10;;;3.90;92.70;;;;;;4967692;28;20539;-71
2023/04/10 03:56:17;;;;;;;5.03;3.67;;;3.90;92.20;;;;;;4968614;28;20233;-71
2023/04/10 03:58:45;;;;;;;8.10;3.92;;;3.80;92.10;;;;;;4965162;28;20206;-71
2023/04/10 04:01:12;;;;;;;7.82;2.90;;;3.80;92.50;;;;;;4968202;28;20247;-71
2023/04/10 04:03:39;;;;;;;5.15;4.57;;;3.70;93.30;;;;;;4967957;28;20226;-71
2023/04/10 04:06:06;;;;;;;5.30;4.35;;;3.70;93.20;;;;;;4968389;28;20219;-71
2023/04/10 04:08:35;;;;;;;13.52;4.30;;;3.70;93.20;;;;;;4967528;28;20306;-70
2023/04/10 04:11:01;;;;;;;6.88;3.85;;;3.80;92.70;;;;;;4968406;28;20749;-71
2023/04/10 04:13:28;;;;;;;7.47;4.03;;;3.90;92.30;;;;;;4968352;28;20690;-71
2023/04/10 04:15:56;;;;;;;8.27;2.35;;;4.00;92.30;;;;;;4967769;28;20719;-71
2023/04/10 04:18:23;;;;;;;5.18;3.65;;;4.00;92.30;;;;;;4967397;28;20205;-71
2023/04/10 04:20:50;;;;;;;4.30;3.90;;;4.00;92.30;;;;;;4967423;28;20233;-71
2023/04/10 04:23:17;;;;;;;5.40;2.97;;;4.10;92.30;;;;;;4967891;28;20343;-72
2023/04/10 04:25:44;;;;;;;7.18;4.82;;;4.20;92.30;;;;;;4967218;28;20235;-71
2023/04/10 04:28:12;;;;;;;3.88;3.45;;;4.20;92.20;;;;;;4967416;28;20207;-71
2023/04/10 04:30:39;;;;;;;4.93;3.10;;;4.20;92.20;;;;;;4966062;28;20290;-71
2023/04/10 04:33:07;;;;;;;4.68;2.72;;;4.20;91.80;;;;;;4968430;28;20213;-71
2023/04/10 04:35:34;;;;;;;6.47;4.00;;;4.30;91.80;;;;;;4967072;28;20234;-72
2023/04/10 04:38:01;;;;;;;4.80;3.10;;;4.30;91.60;;;;;;4960387;28;20205;-71
2023/04/10 04:40:28;;;;;;;6.88;3.20;;;4.30;91.50;;;;;;4967910;28;20224;-71
2023/04/10 04:42:54;;;;;;;4.90;3.03;;;4.30;91.40;;;;;;4969676;28;20982;-71
2023/04/10 04:45:21;;;;;;;10.10;5.25;;;4.30;91.40;;;;;;4971591;28;20554;-72
2023/04/10 04:47:48;;;;;;;7.95;4.32;;;4.40;91.40;;;;;;4970649;28;20202;-71
2023/04/10 04:50:16;;;;;;;3.30;2.97;;;4.50;91.30;;;;;;4970193;28;20195;-71
2023/04/10 04:52:46;;;;;;;5.40;2.65;;;4.40;91.20;;;;;;4971046;28;20214;-72
2023/04/10 04:55:13;;;;;;;3.30;3.00;;;4.50;91.40;;;;;;4970958;28;20286;-71
2023/04/10 04:57:39;;;;;;;4.60;3.40;;;4.50;91.40;;;;;;4970690;28;20203;-72
2023/04/10 05:00:07;;;;;;;7.30;3.80;;;4.50;91.50;;;;;;4969499;28;20213;-71
2023/04/10 05:02:34;;;;;;;8.55;4.88;;;4.60;91.50;;;;;;4970250;28;20289;-71
2023/04/10 05:05:01;;;;;;;6.57;4.30;;;4.60;91.50;;;;;;4971259;28;20544;-71
2023/04/10 05:07:30;;;;;;;3.83;3.53;;;4.60;91.20;;;;;;4970729;28;20564;-71
2023/04/10 05:09:56;;;;;;;7.40;4.40;;;4.60;91.30;;;;;;4970175;28;20202;-71
2023/04/10 05:12:23;;;;;;;4.90;3.35;;;4.70;91.30;;;;;;4969684;28;20229;-71
2023/04/10 05:14:50;;;;;;;3.90;3.17;;;4.70;91.10;;;;;;4970616;28;20198;-72
2023/04/10 05:17:17;;;;;;;9.65;4.93;;;4.80;91.20;;;;;;4970357;28;20223;-72
2023/04/10 05:19:43;;;;;;;4.10;3.70;;;4.80;91.00;;;;;;4970429;28;20202;-71
2023/04/10 05:22:10;;;;;;;7.53;3.95;;;4.90;90.90;;;;;;4970153;28;20589;-72
2023/04/10 05:24:38;;;;;;;5.15;3.80;;;4.90;90.70;;;;;;4970258;28;20234;-71
2023/04/10 05:27:05;;;;;;;4.60;3.42;;;5.00;90.80;;;;;;4970304;28;20215;-72
2023/04/10 05:29:32;;;;;;;6.15;4.03;;;5.00;90.80;;;;;;4969456;28;20199;-71
2023/04/10 05:31:59;;;;;;;7.03;4.57;;;5.00;90.60;;;;;;4966840;28;20232;-71
2023/04/10 05:34:25;;;;;;;5.32;4.72;;;5.10;91.20;;;;;;4971049;28;20294;-72
2023/04/10 05:36:52;;;;;;;4.82;4.10;;;5.20;90.80;;;;;;4969857;28;20310;-71
2023/04/10 05:39:19;;;;;;;4.78;4.32;;;5.20;90.70;;;;;;4970040;28;20209;-71
2023/04/10 05:41:47;;;;;;;3.88;3.65;;;5.30;90.70;;;;;;4970072;28;20254;-72
2023/04/10 05:44:14;;;;;;;6.50;3.78;;;5.30;90.50;;;;;;4966896;28;20765;-72
2023/04/10 05:46:41;;;;;;;8.18;4.93;;;5.30;90.20;;;;;;4969805;28;20232;-71
2023/04/10 05:49:07;;;;;;;4.65;2.92;;;5.30;90.00;;;;;;4969907;28;20210;-71
2023/04/10 05:51:34;;;;;;;7.40;3.95;;;5.50;90.00;;;;;;4969663;28;20231;-70
2023/04/10 05:54:01;;;;;;;4.13;3.70;;;5.50;89.90;;;;;;4968922;28;20282;-71
2023/04/10 05:56:28;;;;;;;8.40;4.55;;;5.50;90.20;;;;;;4969583;28;20227;-71
2023/04/10 05:58:56;;;;;;;4.47;3.28;;;5.60;90.00;;;;;;4968661;28;20203;-71
2023/04/10 06:01:22;;;;;;;6.30;4.32;;;5.70;90.10;;;;;;4969631;28;20220;-71
2023/04/10 06:03:49;;;;;;;10.95;3.80;;;5.70;89.30;;;;;;4969868;28;20226;-71
2023/04/10 06:06:16;;;;;;;6.15;4.43;;;5.80;88.90;;;;;;4969681;28;20231;-71
2023/04/10 06:08:43;;;;;;;5.88;4.32;;;5.80;88.40;;;;;;4969382;28;20293;-71
2023/04/10 06:11:10;;;;;;;5.30;3.60;;;5.80;88.50;;;;;;4969074;28;20227;-71
2023/04/10 06:13:37;;;;;;;4.25;3.15;;;5.90;89.00;;;;;;4968992;28;20218;-71
2023/04/10 06:16:06;;;;;;;5.22;4.20;;;6.00;89.20;;;;;;4968605;28;20233;-71
2023/04/10 06:18:33;;;;;;;3.53;3.20;;;6.00;88.80;;;;;;4959584;28;20214;-70
2023/04/10 06:21:01;;;;;;;4.53;3.65;;;6.10;88.70;;;;;;4961098;28;20223;-71
2023/04/10 06:23:28;;;;;;;3.80;2.80;;;6.20;87.20;;;;;;4962100;28;20235;-70
2023/04/10 06:25:57;;;;;;;7.70;4.18;;;6.20;87.20;;;;;;4962083;28;20218;-71
2023/04/10 06:28:24;;;;;;;5.97;3.30;;;6.20;87.50;;;;;;4958958;28;20211;-68
2023/04/10 06:30:51;;;;;;;4.43;3.47;;;6.20;87.20;;;;;;4960122;28;20222;-69
2023/04/10 06:33:19;;;;;;;5.07;3.85;;;6.30;86.70;;;;;;4959705;28;20300;-69
2023/04/10 06:35:46;;;;;;;4.45;3.95;;;6.30;87.20;;;;;;4961358;28;20711;-71
2023/04/10 06:38:13;;;;;;;5.18;4.43;;;6.40;87.50;;;;;;4960527;28;20284;-69
2023/04/10 06:40:41;;;;;;;3.90;3.55;;;6.40;86.20;;;;;;4958600;28;20227;-70
2023/04/10 06:43:07;;;;;;;6.25;3.05;;;6.40;86.50;;;;;;4956946;28;20211;-70
2023/04/10 06:45:34;;;;;;;4.97;4.07;;;6.40;86.40;;;;;;4963044;28;20227;-71
2023/04/10 06:48:01;;;;;;;5.40;3.50;;;6.40;86.30;;;;;;4949956;28;20229;-70
2023/04/10 06:50:29;;;;;;;3.78;3.28;;;6.50;86.30;;;;;;4962596;28;20232;-70
2023/04/10 06:52:58;;;;;;;8.90;4.68;;;6.50;86.30;;;;;;4959636;28;20299;-70
2023/04/10 06:55:25;;;;;;;3.22;2.95;;;6.60;86.70;;;;;;4962425;28;20246;-70
2023/04/10 06:57:53;;;;;;;5.03;3.75;;;6.80;86.00;;;;;;4963503;28;20198;-72
2023/04/10 07:00:20;;;;;;;3.25;2.83;;;7.00;85.00;;;;;;4963801;28;20664;-72
2023/04/10 07:02:48;;;;;;;4.32;3.25;;;7.00;85.50;;;;;;4961831;28;20302;-70
2023/04/10 07:05:15;;;;;;;4.53;3.10;;;7.30;84.30;;;;;;4960925;28;20697;-71
2023/04/10 07:07:46;;;;;;;7.25;4.40;;;7.40;83.20;;;;;;4968246;28;20258;-73
2023/04/10 07:10:13;;;;;;;7.85;3.05;;;7.50;83.00;;;;;;4961925;28;20215;-72
2023/04/10 07:12:41;;;;;;;4.45;3.15;;;7.70;81.00;;;;;;4959188;28;20218;-72
2023/04/10 07:15:11;;;;;;;7.13;4.07;;;7.80;79.90;;;;;;4964667;28;20584;-73
2023/04/10 07:17:39;;;;;;;4.10;3.03;;;8.00;79.70;;;;;;4960098;28;20286;-73
2023/04/10 07:20:08;;;;;;;2.75;2.15;;;8.00;79.80;;;;;;4967342;28;20222;-72
2023/04/10 07:22:36;;;;;;;6.45;3.25;;;8.10;79.90;;;;;;4966932;28;20208;-73
2023/04/10 07:25:07;;;;;;;2.47;2.28;;;8.30;79.50;;;;;;4967041;28;20234;-73
2023/04/10 07:27:34;;;;;;;5.10;3.05;;;8.50;77.80;;;;;;4966463;28;20551;-73
2023/04/10 07:30:02;;;;;;;4.63;3.30;;;8.60;78.00;;;;;;4945619;28;20238;-74
2023/04/10 07:32:31;;;;;;;2.00;1.73;;;8.70;78.70;;;;;;4955385;28;20687;-75
2023/04/10 07:34:59;;;;;;;1.63;1.50;;;8.80;76.50;;;;;;4967620;28;20697;-74
2023/04/10 07:37:26;;;;;;;3.50;3.00;;;8.90;75.80;;;;;;4964771;28;20648;-76
2023/04/10 07:39:54;;;;;;;3.45;2.83;;;8.90;74.70;;;;;;4959072;28;20791;-73
2023/04/10 07:42:23;;;;;;;1.97;1.73;;;9.10;74.30;;;;;;4957013;28;20236;-70
2023/04/10 07:44:51;;;;;;;4.57;3.63;;;9.30;74.00;;;;;;4960994;28;20730;-71
2023/04/10 07:47:18;;;;;;;5.63;3.53;;;9.50;73.90;;;;;;4958494;28;20656;-73
2023/04/10 07:49:47;;;;;;;3.70;2.37;;;9.60;73.10;;;;;;4959067;28;20675;-73
2023/04/10 07:52:14;;;;;;;3.10;2.50;;;9.70;71.60;;;;;;4962381;28;20707;-73
2023/04/10 07:54:42;;;;;;;2.37;1.93;;;9.80;71.00;;;;;;4958480;28;20690;-73
2023/04/10 07:57:10;;;;;;;3.57;2.47;;;10.00;68.80;;;;;;4965660;28;20671;-73
2023/04/10 07:59:41;;;;;;;4.30;3.53;;;10.00;70.20;;;;;;4961898;28;20963;-72
2023/04/10 08:02:08;;;;;;;2.03;1.83;;;10.20;69.40;;;;;;4966386;28;20656;-73
2023/04/10 08:04:35;;;;;;;3.47;2.17;;;10.30;68.90;;;;;;4957754;28;20682;-73
2023/04/10 08:07:02;;;;;;;2.27;2.13;;;10.30;68.30;;;;;;4964948;28;20766;-73
2023/04/10 08:09:29;;;;;;;2.63;2.40;;;10.50;67.90;;;;;;4966634;28;20624;-73
2023/04/10 08:11:57;;;;;;;4.60;2.10;;;10.50;65.70;;;;;;4968243;28;20734;-73
2023/04/10 08:14:24;;;;;;;1.87;1.20;;;10.60;65.40;;;;;;4969610;28;20633;-73
2023/04/10 08:16:52;;;;;;;2.77;1.70;;;10.70;66.00;;;;;;4971147;28;20687;-73
2023/04/10 08:19:19;;;;;;;2.87;2.27;;;10.80;64.40;;;;;;4971329;28;20619;-73
2023/04/10 08:21:45;;;;;;;3.03;1.90;;;10.80;62.40;;;;;;4970862;28;20660;-73
2023/04/10 08:24:12;;;;;;;2.70;2.00;;;10.90;63.40;;;;;;4971378;28;21165;-73
2023/04/10 08:26:39;;;;;;;2.83;2.10;;;10.90;63.40;;;;;;4970365;28;21003;-73
2023/04/10 08:29:06;;;;;;;7.90;2.33;;;11.00;63.70;;;;;;4970982;28;21177;-71
2023/04/10 08:31:33;;;;;;;2.80;2.10;;;11.10;64.00;;;;;;4960873;28;21242;-72
2023/04/10 08:34:02;;;;;;;2.70;2.20;;;11.20;63.80;;;;;;4971496;28;20727;-71
2023/04/10 08:36:30;;;;;;;4.73;2.43;;;11.40;63.20;;;;;;4971055;28;21319;-71
2023/04/10 08:38:57;;;;;;;2.30;1.50;;;11.40;62.70;;;;;;4967994;28;20968;-72
2023/04/10 08:41:23;;;;;;;2.70;2.43;;;11.50;61.90;;;;;;4969862;28;20664;-72
2023/04/10 08:43:50;;;;;;;3.23;1.83;;;11.50;60.90;;;;;;4970619;28;21233;-72
2023/04/10 08:46:17;;;;;;;2.17;1.70;;;11.60;61.90;;;;;;4971377;28;20675;-72
2023/04/10 08:48:47;;;;;;;2.60;1.80;;;11.70;62.10;;;;;;4970572;28;20628;-72
2023/04/10 08:51:19;;;;;;;4.83;2.20;;;11.80;61.60;;;;;;4971353;28;20667;-72
2023/04/10 08:53:48;;;;;;;2.93;1.73;;;11.90;60.40;;;;;;4969671;28;20675;-72
2023/04/10 08:56:17;;;;;;;4.13;2.37;;;12.00;59.40;;;;;;4971151;28;20767;-72
2023/04/10 08:58:45;;;;;;;1.93;1.33;;;12.10;59.80;;;;;;4970298;28;20735;-72
2023/04/10 09:01:11;;;;;;;3.30;1.73;;;12.00;60.20;;;;;;4969134;28;21276;-72
2023/04/10 09:03:39;;;;;;;3.90;2.53;;;12.10;60.40;;;;;;4970268;28;20642;-72
2023/04/10 09:06:06;;;;;;;2.87;2.23;;;12.10;59.90;;;;;;4970804;28;20664;-72
2023/04/10 09:08:35;;;;;;;1.80;1.70;;;12.40;59.90;;;;;;4969871;28;21156;-72
2023/04/10 09:11:01;;;;;;;3.30;1.70;;;12.60;59.00;;;;;;4970343;28;20684;-72
2023/04/10 09:13:39;;;;;;;3.83;2.03;;;12.60;58.80;;;;;;4970400;28;20629;-73
2023/04/10 09:16:07;;;;;;;2.20;1.47;;;12.60;58.40;;;;;;4954384;28;20722;-72
2023/04/10 09:18:46;;;;;;;2.07;1.93;;;12.60;58.80;;;;;;4966277;28;20648;-72
2023/04/10 09:21:14;;;;;;;1.77;1.63;;;12.70;59.60;;;;;;4970262;28;21339;-72
2023/04/10 09:23:44;;;;;;;2.93;1.73;;;12.80;59.30;;;;;;4970275;28;21013;-72
2023/04/10 09:26:25;;;;;;;2.03;1.57;;;13.00;59.40;;;;;;4966154;28;20647;-72
2023/04/10 09:29:03;;;;;;;1.60;1.50;;;13.10;59.10;;;;;;4970091;28;20697;-72
2023/04/10 09:31:32;;;;;;;2.70;2.00;;;13.40;58.60;;;;;;4963232;28;20668;-72
2023/04/10 09:34:13;;;;;;;2.53;1.90;;;13.40;57.10;;;;;;4970353;28;21043;-72
2023/04/10 09:36:41;;;;;;;1.93;1.70;;;13.70;56.50;;;;;;4970252;28;20664;-72
2023/04/10 09:39:10;;;;;;;1.60;1.20;;;13.70;56.00;;;;;;4968858;28;20633;-72
2023/04/10 09:41:48;;;;;;;1.90;1.80;;;13.80;57.00;;;;;;4957099;28;20687;-73
2023/04/10 09:44:18;;;;;;;3.40;1.47;;;13.90;56.60;;;;;;4970066;28;21360;-73
2023/04/10 09:46:45;;;;;;;4.23;1.57;;;14.00;54.70;;;;;;4962306;28;20717;-73
2023/04/10 09:49:12;;;;;;;1.37;1.27;;;14.10;55.10;;;;;;4969358;28;20633;-73
2023/04/10 09:51:39;;;;;;;1.70;1.30;;;14.20;54.80;;;;;;4970129;28;20664;-72
2023/04/10 09:54:06;;;;;;;2.40;1.70;;;14.20;54.50;;;;;;4969532;28;20735;-73
2023/04/10 09:56:38;;;;;;;1.40;1.23;;;14.30;53.20;;;;;;4969944;28;21395;-72
2023/04/10 09:59:07;;;;;;;1.70;1.20;;;14.40;54.20;;;;;;4968993;28;20632;-72
2023/04/10 10:01:34;;;;;;;1.90;1.80;;;14.50;53.50;;;;;;4969720;28;20767;-72
2023/04/10 10:04:03;;;;;;;2.60;1.90;;;14.70;54.30;;;;;;4969767;28;20768;-72
2023/04/10 10:06:31;;;;;;;1.87;1.20;;;14.70;54.20;;;;;;4969552;28;20653;-72
2023/04/10 10:09:03;;;;;;;1.00;1.00;;;15.10;51.20;;;;;;4969555;28;20762;-72
2023/04/10 10:11:35;;;;;;;1.40;1.27;;;15.20;51.20;;;;;;4969252;28;20687;-72
2023/04/10 10:14:04;;;;;;;0.80;0.80;;;15.30;50.50;;;;;;4969890;28;20632;-72
2023/04/10 10:16:36;;;;;;;1.90;1.40;;;15.30;51.20;;;;;;4963517;28;20715;-72
2023/04/10 10:19:09;;;;;;;2.10;1.20;;;15.30;50.80;;;;;;4951694;28;20641;-72
2023/04/10 10:21:36;;;;;;;1.03;1.00;;;15.40;50.80;;;;;;4969453;28;20657;-72
2023/04/10 10:24:07;;;;;;;1.20;1.03;;;15.60;49.50;;;;;;4969547;28;20744;-72
2023/04/10 10:26:35;;;;;;;1.40;1.10;;;15.60;48.90;;;;;;4969573;28;20659;-72
2023/04/10 10:29:05;;;;;;;1.17;1.07;;;15.60;48.60;;;;;;4969171;28;20633;-72
2023/04/10 10:31:35;;;;;;;1.40;1.30;;;15.70;49.80;;;;;;4968481;28;20662;-72
2023/04/10 10:34:06;;;;;;;1.40;1.07;;;15.90;49.30;;;;;;4969231;28;21187;-72
2023/04/10 10:36:33;;;;;;;0.90;0.80;;;15.90;47.80;;;;;;4969062;28;20732;-72
2023/04/10 10:39:14;;;;;;;1.87;0.90;;;15.90;47.00;;;;;;4968620;28;20633;-72
2023/04/10 10:41:49;;;;;;;1.10;1.07;;;16.10;46.40;;;;;;4959844;28;20711;-72
2023/04/10 10:44:23;;;;;;;1.73;0.60;;;16.00;46.40;;;;;;4967899;28;20712;-72
2023/04/10 10:46:53;;;;;;;0.60;0.60;;;16.20;47.00;;;;;;4969694;28;20760;-72
2023/04/10 10:49:20;;;;;;;1.20;1.00;;;16.20;46.70;;;;;;4968726;28;20636;-72
2023/04/10 10:51:49;;;;;;;1.10;1.00;;;16.50;45.50;;;;;;4968906;28;20660;-72
2023/04/10 10:54:32;;;;;;;1.50;0.80;;;16.60;45.60;;;;;;4969541;28;20730;-72
2023/04/10 10:57:02;;;;;;;1.87;1.07;;;16.60;46.40;;;;;;4968772;28;20668;-72
2023/04/10 10:59:54;;;;;;;1.00;0.90;;;16.70;45.20;;;;;;4959962;28;20646;-72
2023/04/10 11:02:21;;;;;;;0.90;0.80;;;16.60;45.30;;;;;;4965380;28;21287;-72
2023/04/10 11:04:49;;;;;;;0.53;0.53;;;16.50;45.90;;;;;;4968708;28;21008;-72
2023/04/10 11:07:17;;;;;;;1.37;1.00;;;16.50;45.50;;;;;;4968354;28;20760;-72
2023/04/10 11:09:49;;;;;;;0.97;0.87;;;16.50;45.30;;;;;;4968355;28;21002;-72
2023/04/10 11:12:22;;;;;;;0.90;0.83;;;16.70;45.00;;;;;;4968843;28;20655;-72
2023/04/10 11:15:00;;;;;;;0.60;0.60;;;16.70;44.90;;;;;;4968923;28;20630;-72
2023/04/10 11:17:46;;;;;;;1.07;1.00;;;16.90;46.00;;;;;;4968089;28;20657;-72
2023/04/10 11:20:13;;;;;;;1.33;1.03;;;17.10;44.80;;;;;;4968339;28;20635;-73
2023/04/10 11:23:07;;;;;;;0.80;0.70;;;17.30;45.70;;;;;;4967651;28;21223;-73
2023/04/10 11:25:50;;;;;;;1.17;1.07;;;17.60;44.10;;;;;;4955881;28;20733;-73
2023/04/10 11:28:37;;;;;;;0.70;0.50;;;17.80;43.20;;;;;;4965698;28;20999;-72
2023/04/10 11:31:17;;;;;;;1.40;0.90;;;17.90;44.30;;;;;;4968433;28;20771;-73
2023/04/10 11:33:44;;;;;;;1.07;0.97;;;18.10;42.90;;;;;;4968626;28;20659;-73
2023/04/10 11:36:14;;;;;;;1.17;0.80;;;18.00;41.50;;;;;;4967265;28;20667;-73
2023/04/10 11:38:41;;;;;;;0.97;0.80;;;18.60;42.50;;;;;;4968447;28;21028;-73
2023/04/10 11:41:08;;;;;;;1.07;1.00;;;18.80;42.30;;;;;;4950387;28;21274;-72
2023/04/10 11:43:34;;;;;;;0.63;0.60;;;19.20;41.50;;;;;;4967582;28;20655;-73
2023/04/10 11:46:06;;;;;;;0.77;0.77;;;19.40;41.20;;;;;;4966084;28;20680;-73
2023/04/10 11:48:34;;;;;;;0.70;0.70;;;19.50;40.50;;;;;;4960118;28;20660;-71
2023/04/10 11:51:07;;;;;;;1.23;1.03;;;20.00;40.50;;;;;;4962091;28;21051;-71
2023/04/10 11:53:34;;;;;;;0.77;0.73;;;20.40;38.10;;;;;;4965217;28;20634;-72
2023/04/10 11:56:01;;;;;;;0.60;0.50;;;20.70;40.40;;;;;;4970021;28;21223;-73
2023/04/10 11:58:30;;;;;;;0.60;0.60;;;21.50;38.30;;;;;;4967636;28;20634;-72
2023/04/10 12:01:04;;;;;;;0.70;0.70;;;22.30;38.20;;;;;;4966388;28;20657;-73
2023/04/10 12:03:34;;;;;;;0.90;0.90;;;23.00;35.60;;;;;;4968032;28;20652;-73
2023/04/10 12:06:01;;;;;;;0.50;0.50;;;23.30;34.70;;;;;;4968807;28;20775;-73
2023/04/10 12:08:35;;;;;;;0.60;0.60;;;23.20;33.50;;;;;;4963436;28;21003;-74
2023/04/10 12:11:03;;;;;;;0.80;0.80;;;22.50;33.70;;;;;;4965452;28;20684;-72
2023/04/10 12:13:30;;;;;;;0.80;0.77;;;21.90;33.70;;;;;;4966229;28;20639;-73
2023/04/10 12:16:03;;;;;;;0.60;0.50;;;21.40;33.90;;;;;;4962240;28;20648;-72
2023/04/10 12:18:31;;;;;;;0.67;0.50;;;20.80;33.80;;;;;;4964331;28;21131;-72
2023/04/10 12:20:59;;;;;;;0.50;0.50;;;20.40;33.80;;;;;;4970297;28;20657;-72
2023/04/10 12:23:27;;;;;;;0.70;0.40;;;20.10;32.70;;;;;;4960223;28;22177;-71
2023/04/10 12:26:06;;;;;;;0.70;0.40;;;19.70;33.60;;;;;;4962991;28;20688;-71
2023/04/10 12:28:36;;;;;;;0.50;0.50;;;19.60;34.50;;;;;;4959242;28;20693;-72
2023/04/10 12:31:05;;;;;;;0.50;0.50;;;19.50;33.00;;;;;;4965466;28;20756;-72
2023/04/10 12:33:32;;;;;;;0.30;0.20;;;19.20;32.80;;;;;;4963491;28;20646;-72
2023/04/10 12:35:59;;;;;;;0.70;0.60;;;19.20;33.50;;;;;;4962837;28;20756;-72
2023/04/10 12:38:36;;;;;;;0.43;0.43;;;18.80;32.00;;;;;;4959935;28;20211;-72
2023/04/10 12:41:03;;;;;;;0.47;0.40;;;18.70;32.70;;;;;;4961236;28;20746;-73
2023/04/10 12:43:49;;;;;;;0.70;0.57;;;18.80;32.20;;;;;;4963466;28;20661;-75
2023/04/10 12:46:26;;;;;;;0.57;0.57;;;18.50;32.50;;;;;;4952655;28;21296;-72
2023/04/10 12:48:53;;;;;;;0.97;0.70;;;18.60;33.70;;;;;;4964209;28;20993;-72
2023/04/10 12:51:19;;;;;;;0.80;0.67;;;18.70;34.60;;;;;;4962702;28;20827;-72
2023/04/10 12:53:46;;;;;;;0.80;0.50;;;18.70;33.50;;;;;;4964029;28;20754;-72
2023/04/10 12:56:13;;;;;;;0.77;0.60;;;18.90;33.60;;;;;;4970703;28;20586;-72
2023/04/10 12:58:41;;;;;;;0.33;0.33;;;19.00;34.00;;;;;;4966834;28;20632;-72
2023/04/10 13:01:09;;;;;;;0.50;0.50;;;19.20;33.50;;;;;;4969319;28;20654;-72
2023/04/10 13:03:37;;;;;;;0.60;0.50;;;19.40;33.70;;;;;;4970090;28;21215;-73